PWSweather.com
Personal Weather Stations
Station Observations
KNCGREEN1
Sw Greensboro, Greensboro, NC 27407

Sw GreensboroGreensboro, NC 27407

Lat: 36.04, Lon: -79.87

Elevation: 870

Station Type: Davis

http://www.weathertrek.com

Latest ConditionsUpdated 10:00:30 AM EST Sunday, Mar 1, 2015
Currently Today's Max Today's Min Today's Average
Temperature 31.6°F-0.2°C 31.6°F-0.2°C 29.1°F-1.6°C 30.1°F-1.1°C
Dew Point 27.9°F-2.3°C 27.9°F-2.3°C 14.5°F-9.7°C 20.2°F-6.6°C
Winds Calm Calm 2.0 mph SE3.2 kmh SE - 0.1 mph 0.2 kmh
Wind Gusts 1.0 mph1.6 kmh 5.0 mph8.0 kmh - -
Humidity 86% 87% 52% 67%
Pressure 30.52 in1033.5 mb 30.63 in1037.3 mb 30.51 in1033.2 mb -
Hour Temp Dew Point Humidity Winds Wind Gusts Pressure Precip Precip Rate Daily Precip Total
10:00 AM 31.6°F-0.2°C 27.9°F-2.3°C 86% Calm Calm 1.0 mph1.6 kmh 30.52 in1033.5 mb 0.04 in1.0 mm 0.00 in/hr0.0 mm/hr 0.09 in2.3 mm
09:55 AM 31.5°F-0.3°C 27.8°F-2.3°C 86% Calm Calm 2.0 mph3.2 kmh 30.51 in1033.2 mb 0.04 in1.0 mm 0.12 in/hr3.0 mm/hr 0.09 in2.3 mm
09:50 AM 31.3°F-0.4°C 27.6°F-2.4°C 86% Calm Calm 2.0 mph3.2 kmh 30.51 in1033.2 mb 0.03 in0.8 mm 0.00 in/hr0.0 mm/hr 0.08 in2.0 mm
09:45 AM 31.2°F-0.4°C 27.5°F-2.5°C 86% 1.0 mph E1.6 kmh E 4.0 mph6.4 kmh 30.51 in1033.2 mb 0.05 in1.3 mm 0.00 in/hr0.0 mm/hr 0.08 in2.0 mm
09:40 AM 31.0°F-0.6°C 27.6°F-2.4°C 87% Calm Calm 4.0 mph6.4 kmh 30.52 in1033.5 mb 0.05 in1.3 mm 0.00 in/hr0.0 mm/hr 0.08 in2.0 mm
09:35 AM 31.0°F-0.6°C 27.3°F-2.6°C 86% 2.0 mph ESE3.2 kmh ESE 4.0 mph6.4 kmh 30.52 in1033.5 mb 0.05 in1.3 mm 0.12 in/hr3.0 mm/hr 0.08 in2.0 mm
09:30 AM 30.9°F-0.6°C 27.2°F-2.7°C 86% Calm Calm 2.0 mph3.2 kmh 30.52 in1033.5 mb 0.04 in1.0 mm 0.00 in/hr0.0 mm/hr 0.07 in1.8 mm
09:25 AM 30.7°F-0.7°C 27.3°F-2.6°C 87% Calm Calm 1.0 mph1.6 kmh 30.53 in1033.9 mb 0.04 in1.0 mm 0.12 in/hr3.0 mm/hr 0.07 in1.8 mm
09:20 AM 30.6°F-0.8°C 27.2°F-2.7°C 87% Calm Calm 1.0 mph1.6 kmh 30.53 in1033.9 mb 0.03 in0.8 mm 0.00 in/hr0.0 mm/hr 0.06 in1.5 mm
09:15 AM 30.6°F-0.8°C 27.2°F-2.7°C 87% Calm Calm 3.0 mph4.8 kmh 30.53 in1033.9 mb 0.03 in0.8 mm 0.00 in/hr0.0 mm/hr 0.06 in1.5 mm
09:10 AM 30.3°F-0.9°C 26.6°F-3.0°C 86% 1.0 mph E1.6 kmh E 3.0 mph4.8 kmh 30.53 in1033.9 mb 0.03 in0.8 mm 0.00 in/hr0.0 mm/hr 0.06 in1.5 mm
09:05 AM 30.3°F-0.9°C 26.6°F-3.0°C 86% Calm Calm 2.0 mph3.2 kmh 30.53 in1033.9 mb 0.03 in0.8 mm 0.00 in/hr0.0 mm/hr 0.06 in1.5 mm
09:00 AM 30.1°F-1.1°C 26.4°F-3.1°C 86% Calm Calm 1.0 mph1.6 kmh 30.53 in1033.9 mb 0.03 in0.8 mm 0.00 in/hr0.0 mm/hr 0.06 in1.5 mm
08:55 AM 30.1°F-1.1°C 26.4°F-3.1°C 86% Calm Calm 3.0 mph4.8 kmh 30.54 in1034.2 mb 0.04 in1.0 mm 0.00 in/hr0.0 mm/hr 0.06 in1.5 mm
08:50 AM 30.0°F-1.1°C 26.1°F-3.3°C 85% Calm Calm 3.0 mph4.8 kmh 30.54 in1034.2 mb 0.04 in1.0 mm 0.00 in/hr0.0 mm/hr 0.06 in1.5 mm
08:45 AM 30.0°F-1.1°C 26.1°F-3.3°C 85% Calm Calm 3.0 mph4.8 kmh 30.54 in1034.2 mb 0.04 in1.0 mm 0.24 in/hr6.1 mm/hr 0.06 in1.5 mm
08:40 AM 29.8°F-1.2°C 25.9°F-3.4°C 85% Calm Calm 3.0 mph4.8 kmh 30.55 in1034.5 mb 0.02 in0.5 mm 0.00 in/hr0.0 mm/hr 0.04 in1.0 mm
08:35 AM 29.8°F-1.2°C 25.6°F-3.6°C 84% Calm Calm 3.0 mph4.8 kmh 30.55 in1034.5 mb 0.02 in0.5 mm 0.00 in/hr0.0 mm/hr 0.04 in1.0 mm
08:30 AM 29.8°F-1.2°C 25.6°F-3.6°C 84% Calm Calm -- 30.55 in1034.5 mb 0.02 in0.5 mm 0.00 in/hr0.0 mm/hr 0.04 in1.0 mm
08:25 AM 29.8°F-1.2°C 25.6°F-3.6°C 84% Calm Calm 2.0 mph3.2 kmh 30.54 in1034.2 mb 0.03 in0.8 mm 0.00 in/hr0.0 mm/hr 0.04 in1.0 mm
08:20 AM 30.0°F-1.1°C 25.8°F-3.4°C 84% 1.0 mph E1.6 kmh E 2.0 mph3.2 kmh 30.54 in1034.2 mb 0.03 in0.8 mm 0.00 in/hr0.0 mm/hr 0.04 in1.0 mm
08:15 AM 29.8°F-1.2°C 25.6°F-3.6°C 84% Calm Calm 2.0 mph3.2 kmh 30.54 in1034.2 mb 0.03 in0.8 mm 0.00 in/hr0.0 mm/hr 0.04 in1.0 mm
08:10 AM 29.8°F-1.2°C 25.6°F-3.6°C 84% Calm Calm 1.0 mph1.6 kmh 30.54 in1034.2 mb 0.03 in0.8 mm 0.00 in/hr0.0 mm/hr 0.04 in1.0 mm
08:05 AM 29.7°F-1.3°C 25.2°F-3.8°C 83% 1.0 mph E1.6 kmh E 1.0 mph1.6 kmh 30.54 in1034.2 mb 0.03 in0.8 mm 0.00 in/hr0.0 mm/hr 0.04 in1.0 mm
08:00 AM 29.7°F-1.3°C 25.5°F-3.6°C 84% Calm Calm -- 30.54 in1034.2 mb 0.03 in0.8 mm 0.00 in/hr0.0 mm/hr 0.04 in1.0 mm
07:55 AM 29.7°F-1.3°C 25.2°F-3.8°C 83% Calm Calm 2.0 mph3.2 kmh 30.55 in1034.5 mb 0.04 in1.0 mm 0.00 in/hr0.0 mm/hr 0.04 in1.0 mm
07:50 AM 29.5°F-1.4°C 24.7°F-4.1°C 82% Calm Calm 1.0 mph1.6 kmh 30.55 in1034.5 mb 0.04 in1.0 mm 0.12 in/hr3.0 mm/hr 0.04 in1.0 mm
07:45 AM 29.5°F-1.4°C 24.7°F-4.1°C 82% Calm Calm 5.0 mph8.0 kmh 30.55 in1034.5 mb 0.03 in0.8 mm 0.00 in/hr0.0 mm/hr 0.03 in0.8 mm
07:40 AM 29.5°F-1.4°C 24.7°F-4.1°C 82% 2.0 mph E3.2 kmh E 5.0 mph8.0 kmh 30.56 in1034.9 mb 0.03 in0.8 mm 0.00 in/hr0.0 mm/hr 0.03 in0.8 mm
07:35 AM 29.5°F-1.4°C 24.7°F-4.1°C 82% Calm Calm 1.0 mph1.6 kmh 30.56 in1034.9 mb 0.03 in0.8 mm 0.00 in/hr0.0 mm/hr 0.03 in0.8 mm
07:30 AM 29.5°F-1.4°C 24.4°F-4.2°C 81% Calm Calm 1.0 mph1.6 kmh 30.56 in1034.9 mb 0.03 in0.8 mm 0.00 in/hr0.0 mm/hr 0.03 in0.8 mm
07:25 AM 29.5°F-1.4°C 24.4°F-4.2°C 81% Calm Calm 1.0 mph1.6 kmh 30.56 in1034.9 mb 0.03 in0.8 mm 0.00 in/hr0.0 mm/hr 0.03 in0.8 mm
07:20 AM 29.4°F-1.4°C 24.3°F-4.3°C 81% Calm Calm 1.0 mph1.6 kmh 30.56 in1034.9 mb 0.03 in0.8 mm 0.24 in/hr6.1 mm/hr 0.03 in0.8 mm
07:15 AM 29.3°F-1.5°C 23.9°F-4.5°C 80% Calm Calm 1.0 mph1.6 kmh 30.56 in1034.9 mb 0.01 in0.3 mm 0.00 in/hr0.0 mm/hr 0.01 in0.3 mm
07:10 AM 29.3°F-1.5°C 23.6°F-4.7°C 79% Calm Calm 1.0 mph1.6 kmh 30.54 in1034.2 mb 0.01 in0.3 mm 0.00 in/hr0.0 mm/hr 0.01 in0.3 mm
07:05 AM 29.3°F-1.5°C 23.6°F-4.7°C 79% Calm Calm 1.0 mph1.6 kmh 30.54 in1034.2 mb 0.01 in0.3 mm 0.00 in/hr0.0 mm/hr 0.01 in0.3 mm
07:00 AM 29.4°F-1.4°C 23.1°F-4.9°C 77% Calm Calm -- 30.54 in1034.2 mb 0.01 in0.3 mm 0.01 in/hr0.3 mm/hr 0.01 in0.3 mm
06:55 AM 29.1°F-1.6°C 22.5°F-5.3°C 76% Calm Calm 1.0 mph1.6 kmh 30.55 in1034.5 mb 0.00 in0.0 mm 0.00 in/hr0.0 mm/hr 0.00 in0.0 mm
06:50 AM 29.1°F-1.6°C 21.9°F-5.6°C 74% Calm Calm 1.0 mph1.6 kmh 30.55 in1034.5 mb 0.00 in0.0 mm 0.00 in/hr0.0 mm/hr 0.00 in0.0 mm
06:45 AM 29.3°F-1.5°C 22.4°F-5.3°C 75% Calm Calm 1.0 mph1.6 kmh 30.55 in1034.5 mb 0.00 in0.0 mm 0.00 in/hr0.0 mm/hr 0.00 in0.0 mm
06:40 AM 29.1°F-1.6°C 21.5°F-5.8°C 73% Calm Calm 1.0 mph1.6 kmh 30.54 in1034.2 mb 0.00 in0.0 mm 0.00 in/hr0.0 mm/hr 0.00 in0.0 mm
06:35 AM 29.3°F-1.5°C 22.1°F-5.5°C 74% Calm Calm 1.0 mph1.6 kmh 30.54 in1034.2 mb 0.00 in0.0 mm 0.00 in/hr0.0 mm/hr 0.00 in0.0 mm
06:30 AM 29.3°F-1.5°C 22.1°F-5.5°C 74% Calm Calm -- 30.54 in1034.2 mb 0.00 in0.0 mm 0.00 in/hr0.0 mm/hr 0.00 in0.0 mm
06:25 AM 29.3°F-1.5°C 22.1°F-5.5°C 74% Calm Calm 2.0 mph3.2 kmh 30.52 in1033.5 mb 0.00 in0.0 mm 0.00 in/hr0.0 mm/hr 0.00 in0.0 mm
06:20 AM 29.4°F-1.4°C 22.2°F-5.4°C 74% Calm Calm 2.0 mph3.2 kmh 30.52 in1033.5 mb 0.00 in0.0 mm 0.00 in/hr0.0 mm/hr 0.00 in0.0 mm
06:15 AM 29.4°F-1.4°C 21.8°F-5.7°C 73% Calm Calm 2.0 mph3.2 kmh 30.52 in1033.5 mb 0.00 in0.0 mm 0.00 in/hr0.0 mm/hr 0.00 in0.0 mm
06:10 AM 29.5°F-1.4°C 21.6°F-5.8°C 72% Calm Calm -- 30.55 in1034.5 mb 0.00 in0.0 mm 0.00 in/hr0.0 mm/hr 0.00 in0.0 mm
06:05 AM 29.5°F-1.4°C 21.6°F-5.8°C 72% Calm Calm -- 30.55 in1034.5 mb 0.00 in0.0 mm 0.00 in/hr0.0 mm/hr 0.00 in0.0 mm
06:00 AM 29.5°F-1.4°C 20.9°F-6.2°C 70% Calm Calm -- 30.55 in1034.5 mb 0.00 in0.0 mm 0.00 in/hr0.0 mm/hr 0.00 in0.0 mm
05:55 AM 29.7°F-1.3°C 21.1°F-6.1°C 70% Calm Calm 2.0 mph3.2 kmh 30.54 in1034.2 mb 0.00 in0.0 mm 0.00 in/hr0.0 mm/hr 0.00 in0.0 mm
05:50 AM 29.8°F-1.2°C 20.9°F-6.2°C 69% 1.0 mph SE1.6 kmh SE 2.0 mph3.2 kmh 30.54 in1034.2 mb 0.00 in0.0 mm 0.00 in/hr0.0 mm/hr 0.00 in0.0 mm
05:45 AM 30.0°F-1.1°C 21.4°F-5.9°C 70% Calm Calm 2.0 mph3.2 kmh 30.54 in1034.2 mb 0.00 in0.0 mm 0.00 in/hr0.0 mm/hr 0.00 in0.0 mm
05:40 AM 30.0°F-1.1°C 21.1°F-6.1°C 69% Calm Calm 2.0 mph3.2 kmh 30.55 in1034.5 mb 0.00 in0.0 mm 0.00 in/hr0.0 mm/hr 0.00 in0.0 mm
05:35 AM 30.0°F-1.1°C 20.7°F-6.3°C 68% Calm Calm 1.0 mph1.6 kmh 30.55 in1034.5 mb 0.00 in0.0 mm 0.00 in/hr0.0 mm/hr 0.00 in0.0 mm
05:30 AM 30.0°F-1.1°C 19.7°F-6.8°C 65% Calm Calm -- 30.55 in1034.5 mb 0.00 in0.0 mm 0.00 in/hr0.0 mm/hr 0.00 in0.0 mm
05:25 AM 30.0°F-1.1°C 19.7°F-6.8°C 65% Calm Calm -- 30.56 in1034.9 mb 0.00 in0.0 mm 0.00 in/hr0.0 mm/hr 0.00 in0.0 mm
05:20 AM 30.0°F-1.1°C 19.0°F-7.2°C 63% Calm Calm -- 30.56 in1034.9 mb 0.00 in0.0 mm 0.00 in/hr0.0 mm/hr 0.00 in0.0 mm
05:15 AM 30.0°F-1.1°C 18.6°F-7.4°C 62% Calm Calm 1.0 mph1.6 kmh 30.56 in1034.9 mb 0.00 in0.0 mm 0.00 in/hr0.0 mm/hr 0.00 in0.0 mm
05:10 AM 30.0°F-1.1°C 19.7°F-6.8°C 65% Calm Calm 1.0 mph1.6 kmh 30.54 in1034.2 mb 0.00 in0.0 mm 0.00 in/hr0.0 mm/hr 0.00 in0.0 mm
05:05 AM 30.0°F-1.1°C 18.6°F-7.4°C 62% Calm Calm 1.0 mph1.6 kmh 30.54 in1034.2 mb 0.00 in0.0 mm 0.00 in/hr0.0 mm/hr 0.00 in0.0 mm
05:00 AM 30.0°F-1.1°C 18.2°F-7.7°C 61% Calm Calm -- 30.54 in1034.2 mb 0.00 in0.0 mm 0.00 in/hr0.0 mm/hr 0.00 in0.0 mm
04:55 AM 30.0°F-1.1°C 18.2°F-7.7°C 61% 1.0 mph SE1.6 kmh SE 2.0 mph3.2 kmh 30.54 in1034.2 mb 0.00 in0.0 mm 0.00 in/hr0.0 mm/hr 0.00 in0.0 mm
04:50 AM 30.1°F-1.1°C 19.0°F-7.2°C 63% 1.0 mph SE1.6 kmh SE 2.0 mph3.2 kmh 30.54 in1034.2 mb 0.00 in0.0 mm 0.00 in/hr0.0 mm/hr 0.00 in0.0 mm
04:45 AM 30.3°F-0.9°C 19.2°F-7.1°C 63% 1.0 mph SE1.6 kmh SE 2.0 mph3.2 kmh 30.54 in1034.2 mb 0.00 in0.0 mm 0.00 in/hr0.0 mm/hr 0.00 in0.0 mm
04:40 AM 30.3°F-0.9°C 18.5°F-7.5°C 61% Calm Calm 2.0 mph3.2 kmh 30.54 in1034.2 mb 0.00 in0.0 mm 0.00 in/hr0.0 mm/hr 0.00 in0.0 mm
04:35 AM 30.1°F-1.1°C 17.1°F-8.3°C 58% Calm Calm 2.0 mph3.2 kmh 30.54 in1034.2 mb 0.00 in0.0 mm 0.00 in/hr0.0 mm/hr 0.00 in0.0 mm
04:30 AM 30.1°F-1.1°C 17.1°F-8.3°C 58% Calm Calm -- 30.54 in1034.2 mb 0.00 in0.0 mm 0.00 in/hr0.0 mm/hr 0.00 in0.0 mm
04:25 AM 30.3°F-0.9°C 18.1°F-7.7°C 60% 1.0 mph SE1.6 kmh SE 2.0 mph3.2 kmh 30.54 in1034.2 mb 0.00 in0.0 mm 0.00 in/hr0.0 mm/hr 0.00 in0.0 mm
04:20 AM 30.3°F-0.9°C 18.9°F-7.3°C 62% Calm Calm -- 30.54 in1034.2 mb 0.00 in0.0 mm 0.00 in/hr0.0 mm/hr 0.00 in0.0 mm
04:15 AM 30.3°F-0.9°C 19.6°F-6.9°C 64% Calm Calm 1.0 mph1.6 kmh 30.54 in1034.2 mb 0.00 in0.0 mm 0.00 in/hr0.0 mm/hr 0.00 in0.0 mm
04:10 AM 30.4°F-0.9°C 18.2°F-7.7°C 60% Calm Calm 1.0 mph1.6 kmh 30.54 in1034.2 mb 0.00 in0.0 mm 0.00 in/hr0.0 mm/hr 0.00 in0.0 mm
04:05 AM 30.4°F-0.9°C 17.8°F-7.9°C 59% Calm Calm 1.0 mph1.6 kmh 30.54 in1034.2 mb 0.00 in0.0 mm 0.00 in/hr0.0 mm/hr 0.00 in0.0 mm
04:00 AM 30.4°F-0.9°C 17.8°F-7.9°C 59% Calm Calm 1.0 mph1.6 kmh 30.54 in1034.2 mb 0.00 in0.0 mm 0.00 in/hr0.0 mm/hr 0.00 in0.0 mm
03:55 AM 30.6°F-0.8°C 19.1°F-7.2°C 62% Calm Calm 1.0 mph1.6 kmh 30.54 in1034.2 mb 0.00 in0.0 mm 0.00 in/hr0.0 mm/hr 0.00 in0.0 mm
03:50 AM 30.7°F-0.7°C 18.9°F-7.3°C 61% Calm Calm 1.0 mph1.6 kmh 30.54 in1034.2 mb 0.00 in0.0 mm 0.00 in/hr0.0 mm/hr 0.00 in0.0 mm
03:45 AM 30.7°F-0.7°C 18.9°F-7.3°C 61% Calm Calm 2.0 mph3.2 kmh 30.54 in1034.2 mb 0.00 in0.0 mm 0.00 in/hr0.0 mm/hr 0.00 in0.0 mm
03:40 AM 30.7°F-0.7°C 17.3°F-8.2°C 57% Calm Calm 2.0 mph3.2 kmh 30.55 in1034.5 mb 0.00 in0.0 mm 0.00 in/hr0.0 mm/hr 0.00 in0.0 mm
03:35 AM 30.7°F-0.7°C 16.5°F-8.6°C 55% Calm Calm 2.0 mph3.2 kmh 30.55 in1034.5 mb 0.00 in0.0 mm 0.00 in/hr0.0 mm/hr 0.00 in0.0 mm
03:30 AM 30.7°F-0.7°C 15.2°F-9.3°C 52% Calm Calm -- 30.55 in1034.5 mb 0.00 in0.0 mm 0.00 in/hr0.0 mm/hr 0.00 in0.0 mm
03:25 AM 30.7°F-0.7°C 15.6°F-9.1°C 53% 1.0 mph SE1.6 kmh SE 2.0 mph3.2 kmh 30.56 in1034.9 mb 0.00 in0.0 mm 0.00 in/hr0.0 mm/hr 0.00 in0.0 mm
03:20 AM 30.9°F-0.6°C 15.8°F-9.0°C 53% Calm Calm 1.0 mph1.6 kmh 30.56 in1034.9 mb 0.00 in0.0 mm 0.00 in/hr0.0 mm/hr 0.00 in0.0 mm
03:15 AM 30.7°F-0.7°C 15.2°F-9.3°C 52% Calm Calm 1.0 mph1.6 kmh 30.56 in1034.9 mb 0.00 in0.0 mm 0.00 in/hr0.0 mm/hr 0.00 in0.0 mm
03:10 AM 30.7°F-0.7°C 15.6°F-9.1°C 53% Calm Calm 1.0 mph1.6 kmh 30.56 in1034.9 mb 0.00 in0.0 mm 0.00 in/hr0.0 mm/hr 0.00 in0.0 mm
03:05 AM 30.9°F-0.6°C 15.4°F-9.2°C 52% Calm Calm 1.0 mph1.6 kmh 30.56 in1034.9 mb 0.00 in0.0 mm 0.00 in/hr0.0 mm/hr 0.00 in0.0 mm
03:00 AM 30.9°F-0.6°C 15.4°F-9.2°C 52% Calm Calm -- 30.56 in1034.9 mb 0.00 in0.0 mm 0.00 in/hr0.0 mm/hr 0.00 in0.0 mm
02:55 AM 30.7°F-0.7°C 15.2°F-9.3°C 52% Calm Calm 1.0 mph1.6 kmh 30.56 in1034.9 mb 0.00 in0.0 mm 0.00 in/hr0.0 mm/hr 0.00 in0.0 mm
02:50 AM 30.6°F-0.8°C 15.5°F-9.2°C 53% 1.0 mph SE1.6 kmh SE 1.0 mph1.6 kmh 30.56 in1034.9 mb 0.00 in0.0 mm 0.00 in/hr0.0 mm/hr 0.00 in0.0 mm
02:45 AM 30.6°F-0.8°C 15.1°F-9.4°C 52% Calm Calm 3.0 mph4.8 kmh 30.56 in1034.9 mb 0.00 in0.0 mm 0.00 in/hr0.0 mm/hr 0.00 in0.0 mm
02:40 AM 30.7°F-0.7°C 16.0°F-8.9°C 54% Calm Calm 3.0 mph4.8 kmh 30.57 in1035.2 mb 0.00 in0.0 mm 0.00 in/hr0.0 mm/hr 0.00 in0.0 mm
02:35 AM 30.7°F-0.7°C 15.6°F-9.1°C 53% Calm Calm 2.0 mph3.2 kmh 30.57 in1035.2 mb 0.00 in0.0 mm 0.00 in/hr0.0 mm/hr 0.00 in0.0 mm
02:30 AM 30.6°F-0.8°C 16.4°F-8.7°C 55% Calm Calm 3.0 mph4.8 kmh 30.57 in1035.2 mb 0.00 in0.0 mm 0.00 in/hr0.0 mm/hr 0.00 in0.0 mm
02:25 AM 30.6°F-0.8°C 15.1°F-9.4°C 52% Calm Calm 3.0 mph4.8 kmh 30.57 in1035.2 mb 0.00 in0.0 mm 0.00 in/hr0.0 mm/hr 0.00 in0.0 mm
02:20 AM 30.6°F-0.8°C 16.4°F-8.7°C 55% Calm Calm -- 30.57 in1035.2 mb 0.00 in0.0 mm 0.00 in/hr0.0 mm/hr 0.00 in0.0 mm
02:15 AM 30.6°F-0.8°C 16.8°F-8.4°C 56% Calm Calm 2.0 mph3.2 kmh 30.57 in1035.2 mb 0.00 in0.0 mm 0.00 in/hr0.0 mm/hr 0.00 in0.0 mm
02:10 AM 30.4°F-0.9°C 16.2°F-8.8°C 55% Calm Calm 2.0 mph3.2 kmh 30.58 in1035.6 mb 0.00 in0.0 mm 0.00 in/hr0.0 mm/hr 0.00 in0.0 mm
02:05 AM 30.6°F-0.8°C 15.9°F-8.9°C 54% Calm Calm 2.0 mph3.2 kmh 30.58 in1035.6 mb 0.00 in0.0 mm 0.00 in/hr0.0 mm/hr 0.00 in0.0 mm
02:00 AM 30.3°F-0.9°C 16.1°F-8.8°C 55% Calm Calm -- 30.58 in1035.6 mb 0.00 in0.0 mm 0.00 in/hr0.0 mm/hr 0.00 in0.0 mm
01:55 AM 30.3°F-0.9°C 15.7°F-9.1°C 54% Calm Calm 3.0 mph4.8 kmh 30.59 in1035.9 mb 0.00 in0.0 mm 0.00 in/hr0.0 mm/hr 0.00 in0.0 mm
01:50 AM 30.1°F-1.1°C 15.9°F-8.9°C 55% Calm Calm 3.0 mph4.8 kmh 30.59 in1035.9 mb 0.00 in0.0 mm 0.00 in/hr0.0 mm/hr 0.00 in0.0 mm
01:45 AM 30.1°F-1.1°C 15.9°F-8.9°C 55% Calm Calm 2.0 mph3.2 kmh 30.59 in1035.9 mb 0.00 in0.0 mm 0.00 in/hr0.0 mm/hr 0.00 in0.0 mm
01:40 AM 29.8°F-1.2°C 15.2°F-9.3°C 54% 2.0 mph SE3.2 kmh SE 2.0 mph3.2 kmh 30.60 in1036.2 mb 0.00 in0.0 mm 0.00 in/hr0.0 mm/hr 0.00 in0.0 mm
01:35 AM 29.7°F-1.3°C 15.9°F-8.9°C 56% Calm Calm 1.0 mph1.6 kmh 30.60 in1036.2 mb 0.00 in0.0 mm 0.00 in/hr0.0 mm/hr 0.00 in0.0 mm
01:30 AM 29.7°F-1.3°C 15.1°F-9.4°C 54% Calm Calm -- 30.60 in1036.2 mb 0.00 in0.0 mm 0.00 in/hr0.0 mm/hr 0.00 in0.0 mm
01:25 AM 29.7°F-1.3°C 16.8°F-8.4°C 58% Calm Calm -- 30.59 in1035.9 mb 0.00 in0.0 mm 0.00 in/hr0.0 mm/hr 0.00 in0.0 mm
01:20 AM 29.8°F-1.2°C 17.2°F-8.2°C 59% Calm Calm -- 30.59 in1035.9 mb 0.00 in0.0 mm 0.00 in/hr0.0 mm/hr 0.00 in0.0 mm
01:15 AM 30.0°F-1.1°C 17.4°F-8.1°C 59% Calm Calm 1.0 mph1.6 kmh 30.59 in1035.9 mb 0.00 in0.0 mm 0.00 in/hr0.0 mm/hr 0.00 in0.0 mm
01:10 AM 30.0°F-1.1°C 16.6°F-8.6°C 57% Calm Calm 1.0 mph1.6 kmh 30.60 in1036.2 mb 0.00 in0.0 mm 0.00 in/hr0.0 mm/hr 0.00 in0.0 mm
01:05 AM 30.0°F-1.1°C 14.5°F-9.7°C 52% Calm Calm 1.0 mph1.6 kmh 30.60 in1036.2 mb 0.00 in0.0 mm 0.00 in/hr0.0 mm/hr 0.00 in0.0 mm
01:00 AM 30.1°F-1.1°C 15.5°F-9.2°C 54% Calm Calm -- 30.60 in1036.2 mb 0.00 in0.0 mm 0.00 in/hr0.0 mm/hr 0.00 in0.0 mm
12:55 AM 30.1°F-1.1°C 15.5°F-9.2°C 54% Calm Calm 1.0 mph1.6 kmh 30.60 in1036.2 mb 0.00 in0.0 mm 0.00 in/hr0.0 mm/hr 0.00 in0.0 mm
12:50 AM 30.3°F-0.9°C 15.7°F-9.1°C 54% Calm Calm 1.0 mph1.6 kmh 30.60 in1036.2 mb 0.00 in0.0 mm 0.00 in/hr0.0 mm/hr 0.00 in0.0 mm
12:45 AM 30.3°F-0.9°C 16.1°F-8.8°C 55% Calm Calm 2.0 mph3.2 kmh 30.60 in1036.2 mb 0.00 in0.0 mm 0.00 in/hr0.0 mm/hr 0.00 in0.0 mm
12:40 AM 30.3°F-0.9°C 15.2°F-9.3°C 53% 1.0 mph SE1.6 kmh SE 2.0 mph3.2 kmh 30.61 in1036.6 mb 0.00 in0.0 mm 0.00 in/hr0.0 mm/hr 0.00 in0.0 mm
12:35 AM 30.1°F-1.1°C 16.3°F-8.7°C 56% Calm Calm 1.0 mph1.6 kmh 30.61 in1036.6 mb 0.00 in0.0 mm 0.00 in/hr0.0 mm/hr 0.00 in0.0 mm
12:30 AM 30.1°F-1.1°C 15.1°F-9.4°C 53% Calm Calm -- 30.61 in1036.6 mb 0.00 in0.0 mm 0.00 in/hr0.0 mm/hr 0.00 in0.0 mm
12:25 AM 30.0°F-1.1°C 15.4°F-9.2°C 54% Calm Calm 1.0 mph1.6 kmh 30.61 in1036.6 mb 0.00 in0.0 mm 0.00 in/hr0.0 mm/hr 0.00 in0.0 mm
12:20 AM 29.8°F-1.2°C 15.6°F-9.1°C 55% Calm Calm 1.0 mph1.6 kmh 30.61 in1036.6 mb 0.00 in0.0 mm 0.00 in/hr0.0 mm/hr 0.00 in0.0 mm
12:15 AM 29.7°F-1.3°C 15.5°F-9.2°C 55% Calm Calm 2.0 mph3.2 kmh 30.61 in1036.6 mb 0.00 in0.0 mm 0.00 in/hr0.0 mm/hr 0.00 in0.0 mm
12:10 AM 29.5°F-1.4°C 14.9°F-9.5°C 54% Calm Calm 2.0 mph3.2 kmh 30.63 in1037.3 mb 0.00 in0.0 mm 0.00 in/hr0.0 mm/hr 0.00 in0.0 mm
12:05 AM 29.4°F-1.4°C 15.7°F-9.1°C 56% Calm Calm -- 30.63 in1037.3 mb 0.00 in0.0 mm 0.00 in/hr0.0 mm/hr 0.00 in0.0 mm
12:00 AM 29.3°F-1.5°C 16.4°F-8.7°C 58% Calm Calm -- 30.63 in1037.3 mb 0.00 in0.0 mm 0.00 in/hr0.0 mm/hr 0.00 in0.0 mm